createdAt,value
2022-09-23T00:01:05.470Z,5.15
2022-09-23T00:03:33.256Z,4.97
2022-09-23T00:06:10.617Z,5.18
2022-09-23T00:08:38.755Z,5.43
2022-09-23T00:11:26.710Z,4.97
2022-09-23T00:13:55.844Z,5.38
2022-09-23T00:16:28.545Z,5.70
2022-09-23T00:18:55.620Z,5.63
2022-09-23T00:21:23.307Z,5.78
2022-09-23T00:23:49.977Z,5.55
2022-09-23T00:26:19.402Z,5.90
2022-09-23T00:28:46.985Z,6.03
2022-09-23T00:31:25.828Z,5.80
2022-09-23T00:33:57.900Z,5.97
2022-09-23T00:36:25.642Z,6.18
2022-09-23T00:38:53.052Z,6.32
2022-09-23T00:41:19.944Z,5.72
2022-09-23T00:43:55.984Z,5.50
2022-09-23T00:46:29.448Z,6.00
2022-09-23T00:49:06.454Z,5.85
2022-09-23T00:51:38.534Z,5.40
2022-09-23T00:54:06.476Z,5.25
2022-09-23T00:56:34.961Z,5.45
2022-09-23T00:59:02.451Z,5.63
2022-09-23T01:01:29.789Z,5.40
2022-09-23T01:03:57.532Z,5.75
2022-09-23T01:06:24.352Z,6.03
2022-09-23T01:08:51.665Z,5.55
2022-09-23T01:11:18.722Z,5.45
2022-09-23T01:14:06.378Z,5.70
2022-09-23T01:17:00.597Z,5.72
2022-09-23T01:19:44.953Z,6.30
2022-09-23T01:22:17.681Z,5.32
2022-09-23T01:24:44.306Z,6.15
2022-09-23T01:27:52.971Z,6.22
2022-09-23T01:30:36.602Z,6.03
2022-09-23T01:33:25.094Z,5.95
2022-09-23T01:36:04.780Z,5.65
2022-09-23T01:38:59.083Z,6.30
2022-09-23T01:41:34.429Z,5.80
2022-09-23T01:44:19.306Z,5.15
2022-09-23T01:47:04.260Z,5.90
2022-09-23T01:49:49.311Z,6.00
2022-09-23T01:52:30.205Z,6.07
2022-09-23T01:55:23.218Z,6.00
2022-09-23T01:57:57.558Z,5.97
2022-09-23T02:00:25.444Z,5.82
2022-09-23T02:03:01.395Z,6.20
2022-09-23T02:05:33.322Z,6.57
2022-09-23T02:08:11.166Z,5.90
2022-09-23T02:10:57.266Z,6.03
2022-09-23T02:13:32.533Z,6.05
2022-09-23T02:16:03.715Z,6.13
2022-09-23T02:18:37.189Z,6.70
2022-09-23T02:21:09.077Z,6.47
2022-09-23T02:23:50.439Z,6.55
2022-09-23T02:26:30.254Z,6.35
2022-09-23T02:29:13.964Z,6.35
2022-09-23T02:31:55.963Z,6.57
2022-09-23T02:34:44.687Z,6.78
2022-09-23T02:37:31.184Z,6.53
2022-09-23T02:40:05.524Z,6.80
2022-09-23T02:42:42.796Z,6.25
2022-09-23T02:45:09.465Z,7.25
2022-09-23T02:47:41.794Z,6.95
2022-09-23T02:50:09.402Z,6.97
2022-09-23T02:52:38.978Z,7.10
2022-09-23T02:55:08.779Z,6.93
2022-09-23T02:57:35.683Z,7.22
2022-09-23T03:00:02.465Z,6.90
2022-09-23T03:05:31.126Z,6.65
2022-09-23T03:08:25.911Z,6.55
2022-09-23T03:11:05.670Z,7.05
2022-09-23T03:13:38.398Z,6.72
2022-09-23T03:16:10.834Z,6.82
2022-09-23T03:18:46.511Z,7.38
2022-09-23T03:21:13.095Z,6.80
2022-09-23T03:23:41.576Z,7.57
2022-09-23T03:26:24.834Z,7.43
2022-09-23T03:28:52.869Z,7.80
2022-09-23T03:31:19.694Z,7.00
2022-09-23T03:33:58.767Z,7.15
2022-09-23T03:36:51.488Z,7.63
2022-09-23T03:39:28.214Z,7.55
2022-09-23T03:41:58.788Z,7.15
2022-09-23T03:44:28.803Z,7.70
2022-09-23T03:47:02.840Z,7.38
2022-09-23T03:49:35.088Z,6.70
2022-09-23T03:52:03.143Z,8.23
2022-09-23T03:54:30.344Z,6.97
2022-09-23T03:56:58.213Z,7.75
2022-09-23T03:59:25.484Z,7.75
2022-09-23T04:01:52.578Z,7.88
2022-09-23T04:04:19.376Z,8.02
2022-09-23T04:09:12.896Z,7.25
2022-09-23T04:14:07.108Z,7.40
2022-09-23T04:16:33.861Z,7.10
2022-09-23T04:21:27.617Z,7.78
2022-09-23T04:23:54.235Z,7.65
2022-09-23T04:26:20.869Z,8.15
2022-09-23T04:28:47.644Z,7.90
2022-09-23T04:33:41.438Z,7.63
2022-09-23T04:36:08.287Z,7.60
2022-09-23T04:38:34.937Z,7.70
2022-09-23T04:41:01.639Z,8.25
2022-09-23T04:43:28.377Z,8.40
2022-09-23T04:46:03.631Z,8.38
2022-09-23T04:48:30.287Z,8.13
2022-09-23T04:51:04.096Z,7.50
2022-09-23T04:53:31.563Z,8.52
2022-09-23T04:56:06.852Z,8.30
2022-09-23T04:58:34.415Z,8.15
2022-09-23T05:01:10.372Z,7.68
2022-09-23T05:03:37.463Z,8.25
2022-09-23T05:06:04.806Z,8.52
2022-09-23T05:08:31.747Z,8.18
2022-09-23T05:11:00.039Z,8.00
2022-09-23T05:13:27.238Z,7.88
2022-09-23T05:16:01.815Z,8.02
2022-09-23T05:18:31.633Z,8.27
2022-09-23T05:20:58.753Z,8.48
2022-09-23T05:23:25.897Z,8.52
2022-09-23T05:26:04.442Z,8.70
2022-09-23T05:28:32.673Z,8.40
2022-09-23T05:31:19.393Z,8.63
2022-09-23T05:33:49.840Z,8.77
2022-09-23T05:36:20.397Z,8.25
2022-09-23T05:38:48.536Z,9.25
2022-09-23T05:41:16.044Z,8.90
2022-09-23T05:43:42.946Z,8.88
2022-09-23T05:46:13.599Z,9.18
2022-09-23T05:48:41.930Z,8.70
2022-09-23T05:51:13.042Z,8.63
2022-09-23T05:53:41.561Z,8.45
2022-09-23T05:56:08.281Z,8.75
2022-09-23T06:01:08.367Z,8.68
2022-09-23T06:06:01.897Z,8.85
2022-09-23T06:08:28.541Z,9.30
2022-09-23T06:10:55.196Z,8.88
2022-09-23T06:13:21.839Z,9.55
2022-09-23T06:15:48.516Z,9.55
2022-09-23T06:20:41.792Z,9.25
2022-09-23T06:23:10.843Z,9.63
2022-09-23T06:25:40.691Z,9.70
2022-09-23T06:28:10.708Z,9.65
2022-09-23T06:30:37.588Z,9.15
2022-09-23T06:33:04.282Z,9.70
2022-09-23T06:35:33.166Z,9.60
2022-09-23T06:38:03.794Z,9.77
2022-09-23T06:40:31.245Z,9.63
2022-09-23T06:43:02.152Z,9.60
2022-09-23T06:45:28.826Z,10.05
2022-09-23T06:47:57.741Z,10.13
2022-09-23T06:50:26.440Z,10.27
2022-09-23T06:52:55.925Z,10.60
2022-09-23T06:55:31.506Z,9.80
2022-09-23T06:57:58.551Z,9.95
2022-09-23T07:00:26.288Z,10.32
2022-09-23T07:02:54.816Z,10.23
2022-09-23T07:05:22.311Z,9.63
2022-09-23T07:07:48.970Z,10.13
2022-09-23T07:12:42.582Z,9.73
2022-09-23T07:15:09.823Z,10.90
2022-09-23T07:17:36.552Z,10.15
2022-09-23T07:22:30.090Z,10.18
2022-09-23T07:27:27.255Z,10.48
2022-09-23T07:29:54.944Z,13.68
2022-09-23T07:32:22.633Z,10.98
2022-09-23T07:34:49.742Z,10.15
2022-09-23T07:37:17.767Z,9.90
2022-09-23T07:39:45.373Z,10.88
2022-09-23T07:42:13.137Z,10.05
2022-09-23T07:44:43.162Z,9.73
2022-09-23T07:47:09.843Z,9.93
2022-09-23T07:52:04.333Z,9.85
2022-09-23T07:54:31.787Z,9.02
2022-09-23T07:56:58.964Z,9.93
2022-09-23T07:59:26.940Z,9.57
2022-09-23T08:01:55.026Z,9.60
2022-09-23T08:04:27.648Z,9.25
2022-09-23T08:06:57.661Z,9.57
2022-09-23T08:09:28.643Z,9.25
2022-09-23T08:11:55.736Z,9.10
2022-09-23T08:14:22.879Z,8.98
2022-09-23T08:16:50.180Z,8.80
2022-09-23T08:19:16.838Z,8.85
2022-09-23T08:21:47.371Z,9.00
2022-09-23T08:24:17.487Z,8.85
2022-09-23T08:26:45.465Z,8.32
2022-09-23T08:29:13.948Z,8.23
2022-09-23T08:31:40.677Z,8.52
2022-09-23T08:34:08.340Z,8.75
2022-09-23T08:36:35.692Z,7.65
2022-09-23T08:39:02.876Z,7.57
2022-09-23T08:41:58.373Z,6.95
2022-09-23T08:44:48.429Z,6.30
2022-09-23T08:47:47.165Z,5.93
2022-09-23T08:50:19.164Z,6.18
2022-09-23T08:53:07.752Z,5.97
2022-09-23T08:55:52.268Z,5.25
2022-09-23T08:58:43.851Z,5.65
2022-09-23T09:01:21.119Z,5.25
2022-09-23T09:03:54.004Z,5.22
2022-09-23T09:09:53.079Z,5.22
2022-09-23T09:12:29.256Z,5.20
2022-09-23T09:15:08.657Z,5.18
2022-09-23T09:17:38.359Z,5.38
2022-09-23T09:20:24.142Z,5.10
2022-09-23T09:22:57.358Z,5.15
2022-09-23T09:25:49.407Z,5.50
2022-09-23T09:28:24.525Z,4.80
2022-09-23T09:30:56.891Z,5.10
2022-09-23T09:33:30.796Z,5.45
2022-09-23T09:36:10.155Z,5.15
2022-09-23T09:38:37.243Z,5.30
2022-09-23T09:41:17.847Z,4.45
2022-09-23T09:43:53.336Z,5.22
2022-09-23T09:46:25.801Z,5.10
2022-09-23T09:48:59.706Z,5.15
2022-09-23T09:51:28.406Z,5.03
2022-09-23T09:54:15.136Z,4.93
2022-09-23T09:56:44.549Z,4.80
2022-09-23T09:59:20.967Z,4.80
2022-09-23T10:01:47.949Z,4.68
2022-09-23T10:04:33.783Z,4.82
2022-09-23T10:07:15.415Z,5.03
2022-09-23T10:09:50.265Z,4.85
2022-09-23T10:12:22.942Z,4.45
2022-09-23T10:14:51.909Z,4.60
2022-09-23T10:17:22.386Z,4.32
2022-09-23T10:20:00.263Z,4.28
2022-09-23T10:22:32.298Z,4.20
2022-09-23T10:25:03.796Z,4.65
2022-09-23T10:27:34.097Z,4.00
2022-09-23T10:30:07.057Z,4.70
2022-09-23T10:32:44.061Z,4.68
2022-09-23T10:35:13.677Z,4.20
2022-09-23T10:37:41.657Z,3.83
2022-09-23T10:40:56.601Z,4.10
2022-09-23T10:44:07.047Z,4.32
2022-09-23T10:46:47.053Z,4.07
2022-09-23T10:49:31.140Z,4.25
2022-09-23T10:52:25.050Z,4.60
2022-09-23T10:55:30.599Z,4.18
2022-09-23T10:58:42.164Z,3.92
2022-09-23T11:01:29.762Z,4.28
2022-09-23T11:04:18.692Z,5.03
2022-09-23T11:07:07.257Z,4.80
2022-09-23T11:09:43.602Z,4.82
2022-09-23T11:12:10.305Z,4.80
2022-09-23T11:14:55.454Z,5.50
2022-09-23T11:17:38.573Z,5.53
2022-09-23T11:20:25.933Z,5.13
2022-09-23T11:23:14.361Z,5.10
2022-09-23T11:25:40.954Z,5.60
2022-09-23T11:28:29.384Z,5.13
2022-09-23T11:31:19.400Z,5.05
2022-09-23T11:33:55.462Z,5.20
2022-09-23T11:36:26.895Z,5.10
2022-09-23T11:38:55.883Z,5.60
2022-09-23T11:41:33.546Z,5.10
2022-09-23T11:44:19.950Z,5.13
2022-09-23T11:46:59.407Z,5.68
2022-09-23T11:49:55.179Z,5.30
2022-09-23T11:52:24.424Z,4.72
2022-09-23T11:55:22.213Z,5.28
2022-09-23T11:57:53.563Z,5.20
2022-09-23T12:00:24.212Z,4.90
2022-09-23T12:03:12.767Z,5.03
2022-09-23T12:05:45.713Z,4.28
2022-09-23T12:08:21.913Z,4.22
2022-09-23T12:11:09.535Z,4.20
2022-09-23T12:14:04.415Z,3.97
2022-09-23T12:16:52.365Z,3.72
2022-09-23T12:19:59.337Z,3.88
2022-09-23T12:22:32.151Z,3.70
2022-09-23T12:25:20.477Z,3.80
2022-09-23T12:27:50.365Z,3.53
2022-09-23T12:30:24.274Z,4.22
2022-09-23T12:32:52.554Z,3.53
2022-09-23T12:35:37.719Z,3.95
2022-09-23T12:38:25.155Z,3.80
2022-09-23T12:40:54.945Z,3.70
2022-09-23T12:43:34.406Z,3.05
2022-09-23T12:46:25.844Z,3.20
2022-09-23T12:48:58.906Z,3.47
2022-09-23T12:51:29.280Z,3.40
2022-09-23T12:54:00.257Z,3.00
2022-09-23T12:56:33.020Z,3.65
2022-09-23T12:59:19.959Z,3.30
2022-09-23T13:01:47.156Z,3.50
2022-09-23T13:04:49.100Z,3.50
2022-09-23T13:07:19.150Z,3.30
2022-09-23T13:09:50.786Z,3.58
2022-09-23T13:12:29.316Z,3.60
2022-09-23T13:15:00.646Z,3.75
2022-09-23T13:17:39.159Z,3.67
2022-09-23T13:20:20.749Z,3.63
2022-09-23T13:22:53.099Z,3.65
2022-09-23T13:25:24.374Z,3.72
2022-09-23T13:27:55.330Z,3.70
2022-09-23T13:30:26.325Z,4.50
2022-09-23T13:33:04.185Z,4.00
2022-09-23T13:35:44.377Z,3.78
2022-09-23T13:38:25.968Z,3.25
2022-09-23T13:41:01.682Z,3.95
2022-09-23T13:43:36.532Z,3.38
2022-09-23T13:46:16.024Z,3.67
2022-09-23T13:48:46.026Z,3.65
2022-09-23T13:51:22.565Z,3.70
2022-09-23T13:53:57.757Z,3.70
2022-09-23T13:56:27.220Z,4.13
2022-09-23T13:58:56.559Z,3.70
2022-09-23T14:01:33.948Z,3.97
2022-09-23T14:04:02.589Z,4.15
2022-09-23T14:06:31.232Z,3.80
2022-09-23T14:09:01.045Z,4.20
2022-09-23T14:11:33.049Z,4.57
2022-09-23T14:14:07.655Z,3.70
2022-09-23T14:16:39.390Z,3.80
2022-09-23T14:19:08.021Z,3.70
2022-09-23T14:21:39.718Z,3.90
2022-09-23T14:24:19.769Z,4.10
2022-09-23T14:26:59.086Z,4.10
2022-09-23T14:29:30.454Z,3.97
2022-09-23T14:32:06.000Z,4.60
2022-09-23T14:34:51.967Z,4.43
2022-09-23T14:37:37.027Z,4.95
2022-09-23T14:40:08.739Z,5.05
2022-09-23T14:42:41.127Z,4.95
2022-09-23T14:45:14.087Z,5.63
2022-09-23T14:47:46.392Z,5.47
2022-09-23T14:50:42.771Z,5.50
2022-09-23T14:53:18.957Z,6.30
2022-09-23T14:55:47.164Z,6.10
2022-09-23T14:58:18.281Z,5.72
2022-09-23T15:00:55.475Z,5.75
2022-09-23T15:03:22.753Z,5.55
2022-09-23T15:05:57.714Z,5.93
2022-09-23T15:08:27.269Z,6.20
2022-09-23T15:10:54.787Z,5.72
2022-09-23T15:13:26.375Z,6.85
2022-09-23T15:15:54.147Z,5.82
2022-09-23T15:18:26.914Z,6.63
2022-09-23T15:21:08.612Z,5.60
2022-09-23T15:23:41.450Z,5.85
2022-09-23T15:26:17.187Z,6.03
2022-09-23T15:28:44.789Z,6.32
2022-09-23T15:31:19.013Z,6.35
2022-09-23T15:33:47.603Z,6.35
2022-09-23T15:36:25.727Z,6.00
2022-09-23T15:38:53.123Z,5.75
2022-09-23T15:41:19.915Z,5.75
2022-09-23T15:43:47.138Z,6.15
2022-09-23T15:46:28.000Z,5.40
2022-09-23T15:49:00.002Z,6.10
2022-09-23T15:51:28.021Z,6.15
2022-09-23T15:53:55.924Z,6.85
2022-09-23T15:56:23.837Z,6.15
2022-09-23T15:58:50.822Z,5.93
2022-09-23T16:01:32.617Z,6.35
2022-09-23T16:04:03.854Z,6.45
2022-09-23T16:06:31.337Z,6.35
2022-09-23T16:08:58.141Z,6.13
2022-09-23T16:11:30.084Z,6.10
2022-09-23T16:13:56.856Z,6.60
2022-09-23T16:16:23.768Z,6.20
2022-09-23T16:18:53.537Z,6.75
2022-09-23T16:21:23.863Z,6.53
2022-09-23T16:23:51.386Z,6.03
2022-09-23T16:26:30.194Z,6.30
2022-09-23T16:28:58.131Z,5.65
2022-09-23T16:31:26.562Z,5.90
2022-09-23T16:33:53.752Z,5.80
2022-09-23T16:36:22.703Z,5.97
2022-09-23T16:38:49.837Z,6.15
2022-09-23T16:41:16.488Z,6.28
2022-09-23T16:43:43.135Z,7.18
2022-09-23T16:46:15.415Z,6.90
2022-09-23T16:48:44.235Z,7.38
2022-09-23T16:51:20.286Z,6.82
2022-09-23T16:53:49.202Z,6.75
2022-09-23T16:56:18.095Z,7.00
2022-09-23T16:58:44.929Z,7.40
2022-09-23T17:01:44.539Z,7.88
2022-09-23T17:04:12.740Z,7.28
2022-09-23T17:06:49.978Z,7.80
2022-09-23T17:09:22.249Z,7.35
2022-09-23T17:11:58.674Z,8.23
2022-09-23T17:14:25.335Z,8.52
2022-09-23T17:16:51.975Z,9.55
2022-09-23T17:19:18.760Z,8.75
2022-09-23T17:21:45.425Z,8.75
2022-09-23T17:24:12.163Z,9.65
2022-09-23T17:26:38.787Z,9.90
2022-09-23T17:29:06.080Z,10.55
2022-09-23T17:31:32.854Z,9.68
2022-09-23T17:34:00.707Z,9.43
2022-09-23T17:36:27.972Z,9.70
2022-09-23T17:38:54.647Z,9.40
2022-09-23T17:41:21.478Z,9.45
2022-09-23T17:43:53.500Z,9.73
2022-09-23T17:46:20.221Z,10.00
2022-09-23T17:48:46.974Z,11.38
2022-09-23T17:51:16.591Z,12.43
2022-09-23T17:53:46.465Z,12.00
2022-09-23T17:56:17.412Z,11.82
2022-09-23T17:58:45.049Z,11.93
2022-09-23T18:01:23.545Z,11.73
2022-09-23T18:03:58.861Z,11.85
2022-09-23T18:06:27.782Z,12.30
2022-09-23T18:08:55.970Z,11.88
2022-09-23T18:11:27.467Z,12.15
2022-09-23T18:14:00.035Z,11.05
2022-09-23T18:16:34.556Z,11.88
2022-09-23T18:19:02.841Z,12.00
2022-09-23T18:21:35.751Z,11.80
2022-09-23T18:26:50.237Z,12.68
2022-09-23T18:29:17.250Z,12.52
2022-09-23T18:31:45.007Z,12.88
2022-09-23T18:34:18.900Z,12.88
2022-09-23T18:36:45.714Z,12.73
2022-09-23T18:39:12.553Z,13.63
2022-09-23T18:41:39.385Z,13.07
2022-09-23T18:44:06.174Z,12.93
2022-09-23T18:46:32.923Z,14.35
2022-09-23T18:49:18.739Z,13.85
2022-09-23T18:51:51.734Z,15.02
2022-09-23T18:54:19.541Z,14.70
2022-09-23T18:56:46.813Z,15.30
2022-09-23T18:59:19.499Z,15.60
2022-09-23T19:01:48.244Z,15.07
2022-09-23T19:04:18.159Z,14.77
2022-09-23T19:06:45.129Z,16.50
2022-09-23T19:09:12.185Z,14.77
2022-09-23T19:11:39.061Z,15.23
2022-09-23T19:14:09.938Z,15.20
2022-09-23T19:16:38.384Z,16.08
2022-09-23T19:19:05.878Z,15.30
2022-09-23T19:21:33.288Z,16.98
2022-09-23T19:24:03.719Z,15.35
2022-09-23T19:26:39.271Z,15.02
2022-09-23T19:29:08.106Z,16.55
2022-09-23T19:31:40.418Z,15.05
2022-09-23T19:34:19.096Z,15.73
2022-09-23T19:36:47.541Z,15.63
2022-09-23T19:39:26.092Z,15.32
2022-09-23T19:41:55.582Z,15.52
2022-09-23T19:44:24.992Z,17.85
2022-09-23T19:46:55.922Z,16.70
2022-09-23T19:49:24.722Z,16.98
2022-09-23T19:51:51.905Z,17.30
2022-09-23T19:54:21.332Z,15.85
2022-09-23T19:56:49.808Z,16.05
2022-09-23T19:59:19.164Z,15.82
2022-09-23T20:01:47.571Z,16.42
2022-09-23T20:04:15.782Z,17.40
2022-09-23T20:06:43.210Z,18.55
2022-09-23T20:09:10.128Z,16.30
2022-09-23T20:11:36.862Z,17.20
2022-09-23T20:14:05.761Z,17.42
2022-09-23T20:16:35.418Z,17.33
2022-09-23T20:19:03.960Z,17.17
2022-09-23T20:21:31.290Z,18.20
2022-09-23T20:23:58.214Z,16.65
2022-09-23T20:26:43.441Z,18.75
2022-09-23T20:29:11.039Z,17.80
2022-09-23T20:31:38.085Z,17.98
2022-09-23T20:34:07.143Z,18.02
2022-09-23T20:36:34.992Z,17.25
2022-09-23T20:39:05.627Z,18.02
2022-09-23T20:41:36.734Z,17.58
2022-09-23T20:44:11.496Z,17.35
2022-09-23T20:46:38.719Z,16.77
2022-09-23T20:49:07.772Z,18.13
2022-09-23T20:51:35.799Z,17.42
2022-09-23T20:54:03.152Z,18.25
2022-09-23T20:56:30.269Z,18.33
2022-09-23T20:59:01.109Z,17.80
2022-09-23T21:01:28.405Z,17.13
2022-09-23T21:03:55.929Z,17.75
2022-09-23T21:06:26.280Z,16.63
2022-09-23T21:08:54.510Z,18.25
2022-09-23T21:11:21.906Z,19.30
2022-09-23T21:13:50.887Z,17.70
2022-09-23T21:16:19.920Z,17.77
2022-09-23T21:18:47.942Z,17.13
2022-09-23T21:21:15.249Z,17.55
2022-09-23T21:23:43.447Z,17.88
2022-09-23T21:26:17.700Z,17.67
2022-09-23T21:28:46.816Z,17.60
2022-09-23T21:31:25.877Z,17.05
2022-09-23T21:34:03.918Z,16.90
2022-09-23T21:36:37.012Z,17.42
2022-09-23T21:39:05.396Z,17.50
2022-09-23T21:41:32.613Z,17.83
2022-09-23T21:44:00.312Z,17.25
2022-09-23T21:46:28.109Z,17.40
2022-09-23T21:48:57.372Z,17.42
2022-09-23T21:51:26.658Z,18.02
2022-09-23T21:53:57.204Z,17.27
2022-09-23T21:56:26.406Z,17.63
2022-09-23T21:58:54.500Z,17.95
2022-09-23T22:01:26.932Z,17.10
2022-09-23T22:03:59.364Z,17.73
2022-09-23T22:06:28.132Z,17.63
2022-09-23T22:09:08.838Z,18.05
2022-09-23T22:11:55.544Z,18.40
2022-09-23T22:14:26.558Z,17.58
2022-09-23T22:16:57.484Z,17.88
2022-09-23T22:19:35.790Z,17.80
2022-09-23T22:22:08.194Z,18.33
2022-09-23T22:24:34.835Z,17.42
2022-09-23T22:27:01.471Z,17.58
2022-09-23T22:30:00.675Z,18.17
2022-09-23T22:32:46.154Z,17.60
2022-09-23T22:35:17.501Z,18.10
2022-09-23T22:37:45.103Z,18.33
2022-09-23T22:40:14.642Z,17.83
2022-09-23T22:42:42.196Z,18.35
2022-09-23T22:45:10.189Z,18.73
2022-09-23T22:47:39.602Z,18.83
2022-09-23T22:50:08.113Z,18.50
2022-09-23T22:52:35.690Z,18.65
2022-09-23T22:55:03.519Z,19.63
2022-09-23T22:57:31.159Z,18.80
2022-09-23T22:59:57.872Z,18.02
2022-09-23T23:02:24.603Z,18.10
2022-09-23T23:04:51.491Z,18.38
2022-09-23T23:07:21.052Z,19.02
2022-09-23T23:09:52.089Z,18.10
2022-09-23T23:12:20.148Z,19.08
2022-09-23T23:14:47.983Z,19.65
2022-09-23T23:17:15.349Z,20.80
2022-09-23T23:19:42.027Z,19.95
2022-09-23T23:22:08.702Z,19.25
2022-09-23T23:24:35.326Z,20.33
2022-09-23T23:27:01.947Z,20.25
2022-09-23T23:29:28.658Z,20.63
2022-09-23T23:31:55.405Z,20.88
2022-09-23T23:34:22.876Z,20.80
2022-09-23T23:36:54.742Z,20.33
2022-09-23T23:39:24.158Z,20.40
2022-09-23T23:41:55.746Z,22.73
2022-09-23T23:44:24.563Z,20.88
2022-09-23T23:46:52.140Z,21.02
2022-09-23T23:49:19.391Z,21.50
2022-09-23T23:51:46.396Z,22.15
2022-09-23T23:54:13.160Z,20.23
2022-09-23T23:56:39.862Z,20.00
2022-09-23T23:59:06.654Z,21.90
